createdAt,value
2023-06-07T00:00:12.057Z,58.34
2023-06-07T00:03:00.565Z,58.39
2023-06-07T00:05:41.407Z,58.60
2023-06-07T00:08:22.544Z,58.62
2023-06-07T00:11:03.609Z,58.50
2023-06-07T00:13:44.240Z,58.85
2023-06-07T00:16:24.436Z,59.34
2023-06-07T00:19:04.845Z,59.21
2023-06-07T00:21:45.799Z,59.21
2023-06-07T00:24:26.310Z,59.14
2023-06-07T00:27:06.897Z,59.43
2023-06-07T00:29:47.096Z,59.38
2023-06-07T00:32:28.473Z,59.48
2023-06-07T00:35:09.912Z,59.88
2023-06-07T00:37:51.047Z,59.65
2023-06-07T00:40:32.320Z,59.69
2023-06-07T00:43:12.597Z,59.80
2023-06-07T00:45:52.910Z,59.94
2023-06-07T00:48:33.540Z,60.14
2023-06-07T00:51:16.038Z,60.27
2023-06-07T00:54:00.656Z,60.23
2023-06-07T00:56:41.071Z,60.40
2023-06-07T00:59:22.400Z,60.56
2023-06-07T01:02:04.261Z,60.62
2023-06-07T01:04:44.806Z,60.56
2023-06-07T01:07:26.232Z,60.77
2023-06-07T01:10:09.235Z,60.85
2023-06-07T01:12:55.463Z,60.99
2023-06-07T01:15:39.526Z,61.23
2023-06-07T01:18:20.682Z,61.09
2023-06-07T01:21:04.738Z,61.41
2023-06-07T01:23:45.364Z,61.52
2023-06-07T01:26:29.862Z,61.42
2023-06-07T01:29:10.704Z,61.69
2023-06-07T01:31:53.317Z,61.96
2023-06-07T01:34:36.898Z,62.05
2023-06-07T01:37:17.558Z,61.85
2023-06-07T01:40:01.267Z,62.06
2023-06-07T01:42:47.156Z,61.71
2023-06-07T01:45:28.696Z,62.05
2023-06-07T01:48:11.967Z,62.46
2023-06-07T01:50:55.282Z,62.77
2023-06-07T01:53:35.932Z,62.62
2023-06-07T01:56:40.849Z,62.52
2023-06-07T01:59:39.645Z,62.77
2023-06-07T02:02:37.830Z,62.62
2023-06-07T02:05:29.549Z,62.73
2023-06-07T02:08:31.330Z,62.87
2023-06-07T02:11:14.402Z,62.95
2023-06-07T02:13:56.643Z,62.92
2023-06-07T02:16:38.182Z,63.21
2023-06-07T02:19:22.060Z,63.56
2023-06-07T02:22:07.457Z,63.48
2023-06-07T02:24:48.641Z,63.20
2023-06-07T02:27:29.111Z,63.55
2023-06-07T02:30:10.035Z,63.56
2023-06-07T02:32:51.523Z,63.61
2023-06-07T02:35:31.713Z,63.92
2023-06-07T02:38:12.839Z,64.16
2023-06-07T02:40:55.286Z,63.92
2023-06-07T02:43:35.566Z,64.02
2023-06-07T02:46:15.987Z,64.20
2023-06-07T02:48:57.389Z,64.64
2023-06-07T02:51:38.684Z,64.38
2023-06-07T02:54:20.750Z,64.68
2023-06-07T02:57:04.716Z,64.44
2023-06-07T02:59:45.953Z,64.76
2023-06-07T03:02:33.497Z,64.36
2023-06-07T03:05:14.701Z,64.45
2023-06-07T03:07:58.965Z,64.42
2023-06-07T03:10:40.397Z,64.69
2023-06-07T03:13:22.276Z,64.87
2023-06-07T03:16:02.525Z,64.65
2023-06-07T03:18:45.461Z,64.64
2023-06-07T03:21:25.829Z,64.89
2023-06-07T03:24:12.105Z,64.97
2023-06-07T03:26:55.408Z,65.32
2023-06-07T03:29:36.529Z,65.31
2023-06-07T03:32:17.524Z,65.35
2023-06-07T03:34:58.653Z,65.51
2023-06-07T03:37:40.328Z,65.24
2023-06-07T03:40:20.571Z,65.07
2023-06-07T03:43:02.636Z,65.35
2023-06-07T03:45:43.440Z,65.32
2023-06-07T03:48:26.958Z,65.41
2023-06-07T03:51:07.596Z,65.54
2023-06-07T03:53:48.486Z,65.87
2023-06-07T03:56:28.748Z,65.64
2023-06-07T03:59:09.920Z,65.82
2023-06-07T04:01:52.539Z,65.90
2023-06-07T04:04:34.722Z,66.25
2023-06-07T04:07:17.549Z,66.39
2023-06-07T04:09:58.032Z,66.34
2023-06-07T04:12:39.819Z,66.31
2023-06-07T04:15:20.297Z,66.25
2023-06-07T04:18:00.892Z,66.26
2023-06-07T04:20:42.736Z,66.59
2023-06-07T04:23:26.698Z,66.13
2023-06-07T04:26:09.604Z,66.19
2023-06-07T04:28:50.903Z,66.30
2023-06-07T04:31:35.719Z,66.11
2023-06-07T04:34:22.809Z,66.18
2023-06-07T04:37:04.912Z,66.42
2023-06-07T04:39:50.233Z,66.21
2023-06-07T04:42:31.914Z,65.99
2023-06-07T04:45:12.745Z,65.94
2023-06-07T04:47:53.693Z,66.08
2023-06-07T04:50:35.012Z,66.11
2023-06-07T04:53:20.919Z,65.81
2023-06-07T04:56:04.617Z,66.10
2023-06-07T04:58:46.306Z,66.19
2023-06-07T05:01:34.284Z,65.72
2023-06-07T05:04:17.907Z,65.85
2023-06-07T05:07:05.416Z,65.78
2023-06-07T05:09:47.329Z,65.89
2023-06-07T05:12:31.752Z,65.78
2023-06-07T05:15:13.178Z,65.95
2023-06-07T05:17:55.581Z,65.80
2023-06-07T05:20:37.277Z,66.17
2023-06-07T05:23:18.268Z,66.15
2023-06-07T05:26:02.712Z,66.23
2023-06-07T05:28:44.231Z,66.57
2023-06-07T05:31:27.530Z,66.61
2023-06-07T05:34:09.133Z,66.15
2023-06-07T05:36:50.270Z,66.18
2023-06-07T05:39:31.184Z,66.34
2023-06-07T05:42:11.692Z,65.82
2023-06-07T05:44:55.770Z,65.77
2023-06-07T05:47:38.099Z,65.94
2023-06-07T05:50:20.755Z,66.06
2023-06-07T05:53:02.267Z,65.59
2023-06-07T05:55:42.426Z,65.57
2023-06-07T05:58:22.820Z,65.39
2023-06-07T06:01:06.413Z,64.77
2023-06-07T06:03:46.660Z,64.78
2023-06-07T06:06:27.032Z,64.76
2023-06-07T06:09:07.571Z,64.35
2023-06-07T06:11:48.766Z,64.69
2023-06-07T06:14:28.987Z,64.46
2023-06-07T06:17:09.427Z,64.35
2023-06-07T06:19:49.541Z,64.06
2023-06-07T06:22:29.789Z,63.86
2023-06-07T06:25:10.044Z,63.87
2023-06-07T06:27:50.380Z,63.63
2023-06-07T06:30:31.798Z,63.91
2023-06-07T06:33:12.089Z,63.94
2023-06-07T06:35:54.353Z,63.71
2023-06-07T06:38:34.582Z,63.54
2023-06-07T06:41:14.803Z,63.56
2023-06-07T06:43:55.199Z,63.55
2023-06-07T06:46:36.488Z,62.96
2023-06-07T06:49:16.875Z,62.39
2023-06-07T06:51:57.009Z,62.59
2023-06-07T06:54:37.322Z,62.64
2023-06-07T06:57:17.848Z,62.84
2023-06-07T07:00:12.257Z,62.40
2023-06-07T07:02:52.760Z,61.85
2023-06-07T07:05:33.820Z,61.73
2023-06-07T07:08:14.322Z,61.32
2023-06-07T07:10:54.493Z,61.15
2023-06-07T07:13:34.693Z,61.00
2023-06-07T07:16:15.252Z,60.96
2023-06-07T07:18:55.833Z,61.54
2023-06-07T07:21:36.768Z,61.78
2023-06-07T07:24:17.128Z,61.86
2023-06-07T07:26:57.618Z,61.35
2023-06-07T07:29:37.766Z,61.60
2023-06-07T07:32:17.931Z,61.76
2023-06-07T07:34:58.110Z,61.59
2023-06-07T07:37:42.033Z,61.43
2023-06-07T07:40:22.470Z,61.44
2023-06-07T07:43:02.647Z,60.73
2023-06-07T07:45:42.832Z,60.01
2023-06-07T07:48:23.152Z,60.33
2023-06-07T07:51:04.227Z,60.19
2023-06-07T07:53:44.322Z,59.78
2023-06-07T07:56:24.927Z,60.00
2023-06-07T07:59:06.406Z,60.01
2023-06-07T08:01:50.378Z,59.82
2023-06-07T08:04:31.166Z,59.12
2023-06-07T08:07:16.515Z,58.39
2023-06-07T08:09:56.860Z,57.89
2023-06-07T08:12:37.104Z,57.64
2023-06-07T08:15:17.501Z,57.97
2023-06-07T08:17:57.601Z,57.94
2023-06-07T08:20:38.660Z,57.92
2023-06-07T08:23:19.147Z,57.49
2023-06-07T08:26:00.070Z,56.90
2023-06-07T08:28:40.657Z,56.64
2023-06-07T08:31:21.129Z,56.95
2023-06-07T08:34:01.624Z,56.86
2023-06-07T08:36:43.080Z,56.97
2023-06-07T08:39:24.195Z,56.58
2023-06-07T08:42:04.977Z,56.62
2023-06-07T08:44:45.663Z,56.51
2023-06-07T08:47:29.015Z,55.89
2023-06-07T08:50:15.242Z,56.26
2023-06-07T08:52:58.027Z,55.62
2023-06-07T08:55:38.796Z,55.56
2023-06-07T08:58:19.970Z,56.21
2023-06-07T09:01:01.270Z,56.06
2023-06-07T09:03:41.943Z,56.30
2023-06-07T09:06:25.695Z,55.57
2023-06-07T09:09:06.725Z,55.07
2023-06-07T09:11:53.594Z,54.92
2023-06-07T09:14:35.400Z,55.11
2023-06-07T09:17:16.115Z,55.66
2023-06-07T09:19:56.340Z,55.56
2023-06-07T09:22:36.824Z,55.26
2023-06-07T09:25:17.033Z,55.22
2023-06-07T09:27:58.214Z,55.42
2023-06-07T09:31:01.254Z,54.52
2023-06-07T09:33:41.616Z,54.70
2023-06-07T09:36:22.119Z,54.62
2023-06-07T09:39:21.300Z,54.76
2023-06-07T09:42:01.757Z,55.18
2023-06-07T09:44:42.418Z,55.41
2023-06-07T09:47:24.759Z,55.07
2023-06-07T09:50:11.249Z,55.04
2023-06-07T09:52:58.003Z,54.76
2023-06-07T09:55:38.602Z,54.61
2023-06-07T09:58:25.014Z,54.17
2023-06-07T10:01:08.003Z,53.18
2023-06-07T10:03:48.775Z,53.38
2023-06-07T10:06:33.646Z,53.38
2023-06-07T10:09:17.721Z,54.09
2023-06-07T10:11:59.550Z,54.50
2023-06-07T10:14:46.874Z,54.71
2023-06-07T10:17:49.821Z,55.02
2023-06-07T10:20:36.894Z,54.56
2023-06-07T10:23:30.078Z,54.78
2023-06-07T10:26:30.090Z,55.25
2023-06-07T10:29:27.105Z,55.46
2023-06-07T10:32:22.724Z,55.53
2023-06-07T10:35:04.553Z,55.24
2023-06-07T10:37:45.043Z,55.34
2023-06-07T10:40:27.145Z,55.04
2023-06-07T10:43:07.543Z,55.17
2023-06-07T10:45:48.144Z,55.30
2023-06-07T10:48:36.065Z,55.01
2023-06-07T10:51:17.457Z,54.82
2023-06-07T10:53:58.245Z,54.74
2023-06-07T10:56:39.280Z,54.33
2023-06-07T10:59:23.914Z,54.02
2023-06-07T11:02:26.047Z,53.80
2023-06-07T11:05:07.118Z,53.65
2023-06-07T11:07:49.867Z,52.51
2023-06-07T11:10:33.180Z,52.57
2023-06-07T11:13:13.507Z,52.36
2023-06-07T11:15:54.041Z,52.60
2023-06-07T11:19:06.367Z,51.75
2023-06-07T11:21:59.005Z,51.90
2023-06-07T11:24:39.358Z,51.94
2023-06-07T11:27:20.695Z,51.06
2023-06-07T11:30:01.193Z,50.38
2023-06-07T11:32:43.509Z,50.59
2023-06-07T11:35:23.914Z,49.51
2023-06-07T11:38:04.576Z,49.72
2023-06-07T11:40:46.306Z,49.33
2023-06-07T11:43:28.822Z,47.81
2023-06-07T11:46:14.516Z,48.22
2023-06-07T11:48:56.605Z,48.14
2023-06-07T11:51:40.793Z,48.82
2023-06-07T11:54:25.924Z,48.66
2023-06-07T11:57:09.586Z,48.64
2023-06-07T11:59:52.460Z,48.45
2023-06-07T12:02:41.371Z,46.90
2023-06-07T12:05:31.261Z,47.24
2023-06-07T12:08:16.438Z,47.42
2023-06-07T12:10:56.997Z,47.33
2023-06-07T12:13:39.256Z,47.18
2023-06-07T12:16:23.473Z,46.44
2023-06-07T12:19:06.265Z,46.17
2023-06-07T12:21:46.852Z,44.77
2023-06-07T12:24:27.262Z,45.03
2023-06-07T12:27:13.101Z,45.28
2023-06-07T12:29:57.458Z,44.41
2023-06-07T12:32:37.941Z,44.22
2023-06-07T12:35:18.938Z,44.12
2023-06-07T12:37:59.638Z,43.82
2023-06-07T12:40:40.499Z,43.48
2023-06-07T12:43:21.045Z,43.08
2023-06-07T12:46:01.092Z,42.49
2023-06-07T12:48:44.547Z,42.46
2023-06-07T12:51:26.838Z,43.17
2023-06-07T12:54:07.469Z,43.15
2023-06-07T12:56:48.047Z,43.51
2023-06-07T12:59:28.256Z,43.61
2023-06-07T13:02:09.001Z,43.40
2023-06-07T13:04:50.058Z,43.55
2023-06-07T13:07:30.243Z,43.02
2023-06-07T13:10:11.727Z,43.22
2023-06-07T13:12:52.487Z,42.76
2023-06-07T13:15:32.633Z,43.30
2023-06-07T13:18:13.062Z,43.19
2023-06-07T13:20:53.335Z,43.35
2023-06-07T13:23:34.462Z,42.35
2023-06-07T13:26:16.158Z,42.90
2023-06-07T13:28:56.636Z,40.60
2023-06-07T13:31:36.954Z,40.67
2023-06-07T13:34:17.217Z,40.18
2023-06-07T13:36:59.420Z,40.97
2023-06-07T13:39:39.583Z,41.62
2023-06-07T13:42:22.967Z,42.06
2023-06-07T13:45:03.632Z,41.50
2023-06-07T13:47:44.398Z,41.69
2023-06-07T13:50:24.755Z,42.41
2023-06-07T13:53:05.318Z,42.24
2023-06-07T13:55:48.268Z,42.26
2023-06-07T13:58:33.375Z,42.48
2023-06-07T14:01:15.062Z,42.74
2023-06-07T14:03:56.916Z,42.96
2023-06-07T14:06:39.993Z,42.78
2023-06-07T14:09:20.905Z,42.60
2023-06-07T14:12:01.701Z,43.14
2023-06-07T14:14:42.188Z,42.87
2023-06-07T14:17:22.456Z,43.54
2023-06-07T14:20:03.259Z,43.15
2023-06-07T14:22:43.819Z,43.34
2023-06-07T14:25:24.232Z,43.66
2023-06-07T14:28:04.904Z,43.95
2023-06-07T14:30:45.304Z,44.27
2023-06-07T14:33:25.603Z,44.29
2023-06-07T14:36:06.448Z,43.61
2023-06-07T14:38:46.790Z,42.58
2023-06-07T14:41:27.828Z,42.43
2023-06-07T14:44:07.988Z,42.46
2023-06-07T14:46:48.238Z,42.47
2023-06-07T14:49:28.749Z,42.07
2023-06-07T14:52:08.939Z,41.67
2023-06-07T14:54:49.342Z,41.87
2023-06-07T14:57:29.613Z,41.29
2023-06-07T15:00:10.808Z,41.30
2023-06-07T15:02:51.087Z,40.64
2023-06-07T15:05:31.760Z,40.77
2023-06-07T15:08:12.000Z,41.23
2023-06-07T15:10:52.295Z,40.95
2023-06-07T15:13:32.678Z,41.55
2023-06-07T15:16:13.244Z,41.70
2023-06-07T15:18:53.582Z,42.29
2023-06-07T15:21:33.875Z,41.78
2023-06-07T15:24:15.501Z,42.14
2023-06-07T15:26:55.818Z,42.41
2023-06-07T15:29:36.211Z,42.20
2023-06-07T15:32:16.594Z,42.42
2023-06-07T15:34:56.840Z,42.12
2023-06-07T15:37:37.508Z,42.89
2023-06-07T15:40:18.031Z,43.13
2023-06-07T15:42:58.037Z,43.15
2023-06-07T15:45:39.666Z,41.91
2023-06-07T15:48:19.734Z,42.38
2023-06-07T15:51:00.048Z,42.43
2023-06-07T15:53:40.392Z,41.81
2023-06-07T15:56:21.543Z,41.83
2023-06-07T15:59:02.179Z,42.32
2023-06-07T16:01:42.577Z,42.20
2023-06-07T16:04:22.869Z,42.81
2023-06-07T16:07:04.400Z,42.98
2023-06-07T16:09:44.441Z,42.52
2023-06-07T16:12:24.717Z,42.11
2023-06-07T16:15:07.221Z,42.50
2023-06-07T16:17:47.791Z,42.98
2023-06-07T16:20:28.036Z,42.99
2023-06-07T16:23:09.120Z,42.71
2023-06-07T16:25:50.801Z,42.38
2023-06-07T16:28:32.967Z,42.78
2023-06-07T16:31:13.226Z,42.72
2023-06-07T16:33:53.737Z,43.00
2023-06-07T16:36:37.527Z,42.94
2023-06-07T16:39:17.782Z,41.95
2023-06-07T16:41:58.407Z,42.69
2023-06-07T16:44:38.811Z,42.61
2023-06-07T16:47:20.258Z,42.12
2023-06-07T16:50:00.671Z,41.94
2023-06-07T16:52:40.918Z,41.79
2023-06-07T16:55:22.160Z,41.92
2023-06-07T16:58:02.428Z,41.73
2023-06-07T17:00:44.313Z,41.79
2023-06-07T17:03:24.469Z,41.98
2023-06-07T17:06:06.716Z,42.00
2023-06-07T17:08:48.766Z,42.02
2023-06-07T17:11:29.411Z,42.46
2023-06-07T17:14:09.656Z,42.33
2023-06-07T17:16:50.074Z,41.83
2023-06-07T17:19:30.611Z,41.46
2023-06-07T17:22:10.717Z,40.93
2023-06-07T17:24:51.225Z,41.48
2023-06-07T17:27:32.332Z,41.38
2023-06-07T17:30:14.466Z,41.22
2023-06-07T17:32:54.764Z,40.37
2023-06-07T17:35:35.134Z,40.49
2023-06-07T17:38:15.494Z,39.42
2023-06-07T17:40:55.762Z,39.41
2023-06-07T17:43:36.082Z,39.35
2023-06-07T17:46:16.613Z,38.79
2023-06-07T17:48:56.879Z,38.22
2023-06-07T17:51:37.239Z,38.87
2023-06-07T17:54:19.711Z,38.20
2023-06-07T17:56:59.860Z,38.01
2023-06-07T17:59:40.279Z,38.06
2023-06-07T18:02:21.209Z,38.35
2023-06-07T18:05:04.125Z,38.40
2023-06-07T18:07:44.183Z,38.42
2023-06-07T18:10:24.862Z,39.20
2023-06-07T18:13:05.156Z,39.58
2023-06-07T18:15:45.446Z,39.70
2023-06-07T18:18:26.040Z,39.82
2023-06-07T18:21:09.762Z,39.61
2023-06-07T18:23:50.551Z,39.32
2023-06-07T18:26:31.219Z,39.83
2023-06-07T18:29:12.740Z,40.14
2023-06-07T18:31:53.875Z,40.23
2023-06-07T18:34:35.322Z,40.26
2023-06-07T18:37:16.446Z,41.04
2023-06-07T18:39:57.634Z,40.69
2023-06-07T18:42:39.086Z,40.91
2023-06-07T18:45:20.131Z,40.91
2023-06-07T18:48:01.997Z,40.72
2023-06-07T18:50:43.549Z,41.12
2023-06-07T18:53:23.838Z,41.07
2023-06-07T18:56:10.879Z,41.22
2023-06-07T18:58:51.219Z,41.05
2023-06-07T19:01:49.664Z,41.54
2023-06-07T19:04:31.434Z,41.69
2023-06-07T19:07:13.454Z,42.03
2023-06-07T19:09:53.704Z,42.04
2023-06-07T19:12:33.923Z,41.96
2023-06-07T19:15:15.402Z,42.49
2023-06-07T19:17:57.413Z,42.31
2023-06-07T19:20:37.677Z,42.86
2023-06-07T19:23:18.266Z,42.81
2023-06-07T19:25:58.984Z,43.36
2023-06-07T19:28:40.101Z,43.60
2023-06-07T19:31:20.554Z,43.46
2023-06-07T19:34:00.905Z,43.96
2023-06-07T19:36:41.512Z,44.12
2023-06-07T19:39:21.712Z,44.01
2023-06-07T19:42:06.727Z,44.49
2023-06-07T19:44:48.114Z,44.52
2023-06-07T19:47:29.593Z,45.00
2023-06-07T19:50:11.318Z,44.91
2023-06-07T19:52:51.477Z,45.07
2023-06-07T19:55:32.374Z,45.66
2023-06-07T19:58:15.293Z,45.54
2023-06-07T20:00:57.479Z,45.84
2023-06-07T20:03:37.490Z,45.90
2023-06-07T20:06:17.862Z,46.04
2023-06-07T20:08:58.288Z,46.30
2023-06-07T20:11:38.624Z,46.58
2023-06-07T20:14:19.220Z,46.63
2023-06-07T20:17:00.812Z,46.93
2023-06-07T20:19:41.321Z,46.53
2023-06-07T20:22:21.584Z,46.87
2023-06-07T20:25:03.784Z,47.24
2023-06-07T20:27:44.233Z,47.39
2023-06-07T20:30:24.443Z,47.72
2023-06-07T20:33:04.740Z,47.19
2023-06-07T20:35:45.082Z,47.63
2023-06-07T20:38:25.579Z,47.76
2023-06-07T20:41:06.220Z,47.88
2023-06-07T20:43:46.963Z,48.13
2023-06-07T20:46:27.737Z,48.22
2023-06-07T20:49:09.063Z,48.60
2023-06-07T20:51:49.592Z,48.44
2023-06-07T20:54:29.831Z,48.62
2023-06-07T20:57:10.162Z,49.00
2023-06-07T20:59:50.440Z,49.19
2023-06-07T21:02:31.804Z,49.23
2023-06-07T21:05:12.067Z,49.51
2023-06-07T21:07:52.247Z,49.44
2023-06-07T21:10:34.485Z,49.67
2023-06-07T21:13:16.157Z,49.68
2023-06-07T21:15:56.955Z,49.63
2023-06-07T21:18:37.262Z,49.95
2023-06-07T21:21:17.602Z,50.10
2023-06-07T21:23:59.999Z,50.23
2023-06-07T21:26:40.599Z,50.24
2023-06-07T21:29:20.906Z,50.69
2023-06-07T21:32:01.430Z,50.52
2023-06-07T21:34:42.086Z,50.73
2023-06-07T21:37:22.198Z,50.76
2023-06-07T21:40:02.998Z,50.78
2023-06-07T21:42:43.242Z,50.95
2023-06-07T21:45:27.628Z,50.91
2023-06-07T21:48:08.052Z,50.87
2023-06-07T21:50:51.755Z,51.04
2023-06-07T21:53:32.648Z,51.02
2023-06-07T21:56:12.842Z,51.44
2023-06-07T21:58:52.942Z,51.26
2023-06-07T22:01:33.225Z,51.33
2023-06-07T22:04:13.670Z,51.44
2023-06-07T22:06:53.898Z,51.61
2023-06-07T22:09:34.343Z,51.71
2023-06-07T22:12:15.848Z,52.08
2023-06-07T22:14:58.340Z,52.19
2023-06-07T22:17:40.522Z,51.86
2023-06-07T22:20:24.837Z,51.85
2023-06-07T22:23:05.677Z,52.19
2023-06-07T22:25:47.220Z,52.16
2023-06-07T22:28:30.796Z,52.28
2023-06-07T22:31:11.309Z,52.46
2023-06-07T22:33:52.423Z,52.32
2023-06-07T22:36:33.775Z,52.36
2023-06-07T22:39:15.079Z,52.19
2023-06-07T22:41:56.274Z,52.51
2023-06-07T22:44:38.536Z,52.50
2023-06-07T22:47:20.029Z,52.58
2023-06-07T22:50:02.495Z,52.86
2023-06-07T22:52:45.267Z,53.23
2023-06-07T22:55:26.832Z,53.34
2023-06-07T22:58:08.687Z,53.74
2023-06-07T23:00:49.271Z,53.68
2023-06-07T23:03:33.958Z,53.81
2023-06-07T23:06:15.316Z,54.28
2023-06-07T23:08:55.836Z,54.52
2023-06-07T23:11:36.003Z,54.52
2023-06-07T23:14:20.297Z,54.89
2023-06-07T23:17:00.823Z,55.32
2023-06-07T23:19:41.991Z,55.28
2023-06-07T23:22:22.298Z,55.19
2023-06-07T23:25:04.100Z,55.48
2023-06-07T23:27:45.815Z,55.87
2023-06-07T23:30:27.272Z,56.06
2023-06-07T23:33:08.770Z,56.20
2023-06-07T23:35:49.298Z,56.22
2023-06-07T23:38:29.844Z,56.70
2023-06-07T23:41:10.175Z,57.10
2023-06-07T23:43:51.925Z,57.05
2023-06-07T23:46:32.687Z,57.24
2023-06-07T23:49:13.953Z,57.55
2023-06-07T23:51:55.044Z,57.95
2023-06-07T23:54:35.541Z,57.76
2023-06-07T23:57:16.415Z,58.09
2023-06-07T23:59:56.886Z,57.97
